createdAt,value
2022-10-21T00:00:18.077Z,100646.91
2022-10-21T00:05:19.764Z,100624.28
2022-10-21T00:10:21.413Z,100617.28
2022-10-21T00:15:23.145Z,100606.78
2022-10-21T00:20:24.823Z,100618.94
2022-10-21T00:25:26.545Z,100621.44
2022-10-21T00:30:28.262Z,100624.88
2022-10-21T00:35:33.244Z,100618.75
2022-10-21T00:40:34.996Z,100602.25
2022-10-21T00:45:36.628Z,100600.44
2022-10-21T00:50:42.610Z,100589.16
2022-10-21T00:55:48.429Z,100564.78
2022-10-21T01:00:50.372Z,100550.91
2022-10-21T01:05:52.364Z,100533.53
2022-10-21T01:10:54.692Z,100526.53
2022-10-21T01:16:06.305Z,100523.00
2022-10-21T01:21:16.864Z,100513.44
2022-10-21T01:26:26.629Z,100506.47
2022-10-21T01:31:33.154Z,100495.16
2022-10-21T01:36:49.107Z,100485.63
2022-10-21T01:42:00.047Z,100484.75
2022-10-21T01:47:05.548Z,100483.91
2022-10-21T01:52:07.267Z,100499.56
2022-10-21T01:57:08.987Z,100492.63
2022-10-21T02:02:10.737Z,100494.38
2022-10-21T02:07:12.440Z,100493.56
2022-10-21T02:12:14.183Z,100479.66
2022-10-21T02:17:18.136Z,100464.91
2022-10-21T02:22:20.707Z,100452.78
2022-10-21T02:27:22.446Z,100461.44
2022-10-21T02:32:35.659Z,100458.00
2022-10-21T02:37:54.543Z,100444.97
2022-10-21T02:43:04.837Z,100440.63
2022-10-21T02:48:06.518Z,100437.09
2022-10-21T02:53:08.193Z,100431.91
2022-10-21T02:58:09.873Z,100425.06
2022-10-21T03:03:11.558Z,100432.00
2022-10-21T03:08:13.236Z,100438.06
2022-10-21T03:13:14.899Z,100431.19
2022-10-21T03:18:16.623Z,100416.44
2022-10-21T03:23:18.924Z,100407.81
2022-10-21T03:28:20.585Z,100400.91
2022-10-21T03:33:22.220Z,100397.44
2022-10-21T03:38:23.859Z,100389.66
2022-10-21T03:43:25.630Z,100389.63
2022-10-21T03:48:27.346Z,100393.09
2022-10-21T03:53:42.769Z,100378.34
2022-10-21T03:58:44.735Z,100371.38
2022-10-21T04:03:46.375Z,100369.53
2022-10-21T04:08:48.126Z,100361.78
2022-10-21T04:13:49.842Z,100347.03
2022-10-21T04:18:51.515Z,100341.00
2022-10-21T04:23:53.205Z,100324.50
2022-10-21T04:28:54.906Z,100331.41
2022-10-21T04:33:56.583Z,100318.41
2022-10-21T04:38:58.251Z,100317.50
2022-10-21T04:44:00.937Z,100314.94
2022-10-21T04:49:02.592Z,100321.03
2022-10-21T04:54:04.600Z,100322.81
2022-10-21T04:59:06.470Z,100315.88
2022-10-21T05:04:08.160Z,100320.28
2022-10-21T05:09:10.209Z,100328.94
2022-10-21T05:14:11.917Z,100316.81
2022-10-21T05:19:13.676Z,100321.16
2022-10-21T05:24:15.659Z,100311.66
2022-10-21T05:29:17.412Z,100303.81
2022-10-21T05:34:19.101Z,100283.84
2022-10-21T05:39:20.753Z,100276.94
2022-10-21T05:44:22.476Z,100283.00
2022-10-21T05:49:24.183Z,100292.56
2022-10-21T05:54:25.881Z,100289.94
2022-10-21T05:59:27.570Z,100283.88
2022-10-21T06:04:29.180Z,100265.63
2022-10-21T06:09:30.891Z,100274.31
2022-10-21T06:14:32.585Z,100282.13
2022-10-21T06:19:34.330Z,100281.25
2022-10-21T06:24:35.987Z,100276.03
2022-10-21T06:29:37.890Z,100282.97
2022-10-21T06:34:39.577Z,100289.09
2022-10-21T06:39:41.258Z,100292.59
2022-10-21T06:44:42.894Z,100286.56
2022-10-21T06:49:44.515Z,100291.75
2022-10-21T06:54:46.152Z,100284.84
2022-10-21T06:59:47.906Z,100289.19
2022-10-21T07:04:49.692Z,100281.38
2022-10-21T07:09:51.400Z,100285.72
2022-10-21T07:14:54.179Z,100294.44
2022-10-21T07:19:55.821Z,100296.16
2022-10-21T07:24:57.525Z,100311.84
2022-10-21T07:29:59.296Z,100311.00
2022-10-21T07:35:00.947Z,100310.16
2022-10-21T07:40:02.670Z,100312.78
2022-10-21T07:45:04.503Z,100306.69
2022-10-21T07:50:06.426Z,100296.22
2022-10-21T07:55:08.058Z,100293.59
2022-10-21T08:00:10.452Z,100296.19
2022-10-21T08:05:14.728Z,100296.19
2022-10-21T08:10:16.380Z,100290.03
2022-10-21T08:15:18.121Z,100281.28
2022-10-21T08:20:19.885Z,100282.13
2022-10-21T08:25:21.662Z,100264.63
2022-10-21T08:30:23.318Z,100253.28
2022-10-21T08:35:25.712Z,100256.66
2022-10-21T08:40:29.397Z,100252.25
2022-10-21T08:46:11.681Z,100258.28
2022-10-21T08:51:23.746Z,100255.44
2022-10-21T09:01:42.493Z,100240.66
2022-10-21T09:06:59.200Z,100249.22
2022-10-21T09:12:22.487Z,100239.41
2022-10-21T09:18:02.635Z,100243.94
2022-10-21T09:23:30.048Z,100240.22
2022-10-21T09:28:31.821Z,100237.97
2022-10-21T09:33:34.601Z,100230.59
2022-10-21T09:38:42.953Z,100236.94
2022-10-21T09:43:44.640Z,100236.31
2022-10-21T09:49:25.952Z,100246.56
2022-10-21T09:54:19.954Z,100258.66
2022-10-21T09:59:23.400Z,100271.34
2022-10-21T10:04:32.756Z,100266.59
2022-10-21T10:09:34.568Z,100277.84
2022-10-21T10:14:38.608Z,100263.53
2022-10-21T10:19:40.299Z,100255.50
2022-10-21T10:24:43.177Z,100251.66
2022-10-21T10:29:49.391Z,100265.44
2022-10-21T10:34:54.376Z,100261.88
2022-10-21T10:39:57.290Z,100273.13
2022-10-21T10:45:00.751Z,100270.22
2022-10-21T10:50:02.552Z,100256.66
2022-10-21T10:55:17.276Z,100269.19
2022-10-21T11:00:22.496Z,100265.63
2022-10-21T11:05:30.119Z,100263.84
2022-10-21T11:10:44.808Z,100255.91
2022-10-21T11:16:12.190Z,100251.50
2022-10-21T11:21:26.070Z,100243.53
2022-10-21T11:26:36.736Z,100246.16
2022-10-21T11:32:10.032Z,100241.91
2022-10-21T11:37:49.680Z,100241.25
2022-10-21T11:42:51.839Z,100245.78
2022-10-21T11:48:16.717Z,100244.66
2022-10-21T11:53:33.082Z,100244.00
2022-10-21T11:58:43.661Z,100249.97
2022-10-21T12:04:09.881Z,100249.97
2022-10-21T12:09:22.544Z,100246.75
2022-10-21T12:14:31.126Z,100251.19
2022-10-21T12:19:33.397Z,100255.63
2022-10-21T12:24:44.882Z,100249.63
2022-10-21T12:29:59.331Z,100240.19
2022-10-21T12:35:01.246Z,100247.34
2022-10-21T12:40:12.215Z,100241.25
2022-10-21T12:45:31.228Z,100237.03
2022-10-21T12:50:33.325Z,100232.66
2022-10-21T12:55:39.858Z,100239.69
2022-10-21T13:00:44.557Z,100238.00
2022-10-21T13:05:46.228Z,100242.41
2022-10-21T13:11:05.938Z,100239.78
2022-10-21T13:16:19.617Z,100241.66
2022-10-21T13:21:23.904Z,100238.25
2022-10-21T13:26:27.077Z,100237.66
2022-10-21T13:31:28.933Z,100241.94
2022-10-21T13:36:41.298Z,100239.41
2022-10-21T13:41:42.978Z,100238.44
2022-10-21T13:46:44.641Z,100245.44
2022-10-21T13:51:46.617Z,100246.38
2022-10-21T13:56:48.350Z,100242.94
2022-10-21T14:01:54.025Z,100248.34
2022-10-21T14:07:01.248Z,100259.03
2022-10-21T14:12:07.920Z,100257.41
2022-10-21T14:17:24.556Z,100266.41
2022-10-21T14:22:26.340Z,100261.19
2022-10-21T14:27:29.562Z,100263.00
2022-10-21T14:32:31.200Z,100252.56
2022-10-21T14:37:36.686Z,100253.53
2022-10-21T14:42:39.700Z,100250.13
2022-10-21T14:47:41.542Z,100245.81
2022-10-21T14:52:43.180Z,100241.41
2022-10-21T14:57:47.661Z,100240.72
2022-10-21T15:02:49.699Z,100243.44
2022-10-21T15:07:51.450Z,100233.88
2022-10-21T15:12:53.549Z,100234.81
2022-10-21T15:18:03.951Z,100236.72
2022-10-21T15:23:20.132Z,100240.25
2022-10-21T15:28:23.290Z,100246.47
2022-10-21T15:33:26.065Z,100248.34
2022-10-21T15:38:27.689Z,100238.69
2022-10-21T15:43:29.372Z,100232.41
2022-10-21T15:48:31.050Z,100240.38
2022-10-21T15:53:32.727Z,100234.31
2022-10-21T15:58:34.387Z,100231.91
2022-10-21T16:03:36.028Z,100226.63
2022-10-21T16:08:37.677Z,100217.03
2022-10-21T16:13:39.418Z,100215.06
2022-10-21T16:18:41.115Z,100214.09
2022-10-21T16:23:42.951Z,100210.59
2022-10-21T16:28:44.646Z,100204.53
2022-10-21T16:33:46.319Z,100205.22
2022-10-21T16:38:48.183Z,100213.22
2022-10-21T16:43:50.008Z,100251.81
2022-10-21T16:48:51.922Z,100256.34
2022-10-21T16:53:53.727Z,100270.25
2022-10-21T16:58:55.463Z,100266.66
2022-10-21T17:03:57.256Z,100270.28
2022-10-21T17:08:59.016Z,100268.59
2022-10-21T17:14:01.702Z,100251.94
2022-10-21T17:19:03.603Z,100260.63
2022-10-21T17:24:05.460Z,100255.31
2022-10-21T17:29:07.412Z,100268.50
2022-10-21T17:34:20.933Z,100280.78
2022-10-21T17:39:22.792Z,100281.66
2022-10-21T17:44:25.005Z,100289.56
2022-10-21T17:49:26.964Z,100294.88
2022-10-21T17:54:29.940Z,100305.53
2022-10-21T17:59:33.559Z,100290.66
2022-10-21T18:04:35.205Z,100298.59
2022-10-21T18:09:36.952Z,100295.06
2022-10-21T18:14:38.604Z,100292.38
2022-10-21T18:19:40.395Z,100296.06
2022-10-21T18:24:42.193Z,100296.09
2022-10-21T18:29:43.886Z,100295.91
2022-10-21T18:34:45.636Z,100295.13
2022-10-21T18:39:47.610Z,100301.50
2022-10-21T18:44:51.230Z,100305.16
2022-10-21T18:49:53.632Z,100311.31
2022-10-21T18:54:55.448Z,100320.84
2022-10-21T18:59:57.184Z,100330.53
2022-10-21T19:05:01.400Z,100317.44
2022-10-21T19:10:04.862Z,100320.44
2022-10-21T19:15:07.417Z,100327.31
2022-10-21T19:20:09.210Z,100329.88
2022-10-21T19:25:10.872Z,100330.03
2022-10-21T19:30:12.639Z,100333.69
2022-10-21T19:35:14.319Z,100323.19
2022-10-21T19:40:16.160Z,100326.78
2022-10-21T19:45:18.179Z,100320.56
2022-10-21T19:50:19.851Z,100326.81
2022-10-21T19:55:21.672Z,100322.66
2022-10-21T20:00:23.368Z,100325.25
2022-10-21T20:05:25.031Z,100327.97
2022-10-21T20:10:26.864Z,100341.13
2022-10-21T20:15:28.583Z,100355.06
2022-10-21T20:20:30.237Z,100357.84
2022-10-21T20:25:31.883Z,100378.91
2022-10-21T20:30:33.574Z,100376.44
2022-10-21T20:35:42.037Z,100370.31
2022-10-21T20:40:43.747Z,100364.16
2022-10-21T20:45:45.487Z,100370.38
2022-10-21T20:50:47.230Z,100361.69
2022-10-21T20:55:54.104Z,100355.59
2022-10-21T21:00:55.745Z,100360.03
2022-10-21T21:06:01.471Z,100357.53
2022-10-21T21:11:03.623Z,100354.09
2022-10-21T21:16:18.726Z,100359.44
2022-10-21T21:21:20.829Z,100359.53
2022-10-21T21:26:24.341Z,100363.88
2022-10-21T21:31:26.788Z,100363.91
2022-10-21T21:36:28.552Z,100369.97
2022-10-21T21:41:30.201Z,100371.72
2022-10-21T21:46:31.860Z,100368.25
2022-10-21T21:51:35.176Z,100377.06
2022-10-21T21:56:36.855Z,100382.34
2022-10-21T22:01:38.561Z,100397.88
2022-10-21T22:06:40.259Z,100395.34
2022-10-21T22:11:41.928Z,100386.47
2022-10-21T22:16:43.569Z,100382.97
2022-10-21T22:21:45.220Z,100384.66
2022-10-21T22:26:46.892Z,100406.44
2022-10-21T22:31:48.517Z,100389.75
2022-10-21T22:36:50.194Z,100381.00
2022-10-21T22:41:51.811Z,100361.69
2022-10-21T22:46:53.454Z,100351.94
2022-10-21T22:51:55.085Z,100341.34
2022-10-21T22:56:56.800Z,100333.53
2022-10-21T23:01:58.665Z,100334.31
2022-10-21T23:07:00.547Z,100328.25
2022-10-21T23:12:02.234Z,100330.94
2022-10-21T23:17:03.860Z,100336.03
2022-10-21T23:22:05.549Z,100371.84
2022-10-21T23:27:07.248Z,100372.91
2022-10-21T23:32:08.915Z,100358.09
2022-10-21T23:37:10.694Z,100372.91
2022-10-21T23:42:12.421Z,100352.91
2022-10-21T23:47:14.042Z,100356.38
2022-10-21T23:52:15.705Z,100346.78
2022-10-21T23:57:17.350Z,100350.19
